Singer Island, Florida
Current Conditions -  °F | °C
As of 10:53 AM on Thursday 30 Oct 2014 (Local Time) from KPBI Reporting Station
Few Clouds Few Clouds  
Wind Chill: 27°   Ceiling: Unl
Heat Index: 28°   Visibility: 10mi
Dew Point: 19°   Wind: 8mph
Humidity: 64%   Direction: 280°W
Pressure: 29.97"   Gusts: NA
Location:  26.7789°N, 80.0745°W
Report Text: KPBI 301453Z 28007KT 10SM FEW030 FEW100 27/19 A2997 RMK AO2 SLP148 T02670194 50005
Loading
Personal Weather Stations






























Interactive Weather Map
Tropical Storm Tracking
New forecast layout! Learn more

10-Day Weather Forecast

Advertisements
Track Severe Weather on mobile